Home > Products > Valid Products > TAF

000
FTUS44 KMAF 042334
TAFMAF
TAF
KMAF 042334Z 0500/0524 14012G19KT P6SM BKN060 BKN250
     FM050200 15008KT P6SM BKN250
      TEMPO 0512/0515 BKN020
     FM051500 16014G22KT P6SM BKN250=



000
FTUS44 KMAF 042334
TAFMAF
TAF
KMAF 042334Z 0500/0524 14012G19KT P6SM BKN060 BKN250
     FM050200 15008KT P6SM BKN250
      TEMPO 0512/0515 BKN020
     FM051500 16014G22KT P6SM BKN250=



000
FTUS44 KMAF 041822 AAB
TAFMAF
TAF AMD
KMAF 041822Z 0418/0518 15010G18KT P6SM BKN050 BKN250
     FM050100 15008KT P6SM BKN250=



000
FTUS44 KMAF 041349 AAA
TAFMAF
TAF AMD
KMAF 041349Z 0414/0512 13006KT P6SM FEW130 BKN200
      TEMPO 0414/0416 OVC019
     FM041800 15011KT P6SM SCT130 SCT200=



000
FTUS44 KMAF 041349 AAA
TAFMAF
TAF AMD
KMAF 041349Z 0414/0512 13006KT P6SM FEW130 BKN200
      TEMPO 0414/0416 OVC019
     FM041800 15011KT P6SM SCT130 SCT200=



000
FTUS44 KMAF 041120
TAFMAF
TAF
KMAF 041120Z 0412/0512 13006KT P6SM FEW130 BKN200
     FM041800 15011KT P6SM SCT130 SCT200=



000
FTUS44 KMAF 040522
TAFMAF
TAF
KMAF 040522Z 0406/0506 16007KT P6SM FEW130 BKN200
     FM041200 15006KT P6SM SCT020 BKN130
     FM041500 15011KT P6SM SCT040 SCT130=



000
FTUS44 KMAF 032338
TAFMAF
TAF
KMAF 032338Z 0400/0424 14009KT P6SM SCT050 SCT200
     FM041200 15006KT P6SM SCT020 BKN100
     FM041500 16013KT P6SM SCT040 BKN100=



000
FTUS44 KMAF 031909 AAA
TAFMAF
TAF AMD
KMAF 031909Z 0319/0418 10005KT P6SM SCT035 BKN050
     FM032100 12009KT P6SM SCT050 SCT200
     FM041200 12006KT P6SM SCT020 BKN100
     FM041500 16012KT P6SM SCT040 BKN100=



000
FTUS44 KMAF 031742
TAFMAF
TAF
KMAF 031742Z 0318/0418 VRB04KT P6SM BKN030
     FM032100 12009KT P6SM SCT040 SCT200
     FM041200 12006KT P6SM SCT020 BKN100
     FM041500 16012KT P6SM SCT040 BKN100=



000
FTUS44 KMAF 031310 AAB
TAFMAF
TAF AMD
KMAF 031310Z 0313/0412 15008KT P6SM BKN015 BKN150
      TEMPO 0313/0315 OVC015
     FM031700 14011KT P6SM SCT040 BKN150=



000
FTUS44 KMAF 031310 AAB
TAFMAF
TAF AMD
KMAF 031310Z 0313/0412 15008KT P6SM BKN015 BKN150
      TEMPO 0313/0315 OVC015
     FM031700 14011KT P6SM SCT040 BKN150=



000
FTUS44 KMAF 031120
TAFMAF
TAF
KMAF 031120Z 0312/0412 15008KT P6SM BKN150
      TEMPO 0312/0314 BKN012
     FM031800 14011KT P6SM SCT060 BKN130=



000
FTUS44 KMAF 031120
TAFMAF
TAF
KMAF 031120Z 0312/0412 15008KT P6SM BKN150
      TEMPO 0312/0314 BKN012
     FM031800 14011KT P6SM SCT060 BKN130=



000
FTUS44 KMAF 030520
TAFMAF
TAF
KMAF 030520Z 0306/0406 16010KT P6SM BKN150
      TEMPO 0310/0314 BKN012
     FM031800 14010KT P6SM SCT080 BKN250=



000
FTUS44 KMAF 022322
TAFMAF
TAF
KMAF 022322Z 0300/0324 14010KT P6SM SCT080 SCT250
     FM031000 12007KT P6SM BKN150
      TEMPO 0310/0314 BKN012
     FM031800 14010KT P6SM SCT080 SCT250=



000
FTUS44 KMAF 021728
TAFMAF
TAF
KMAF 021728Z 0218/0318 15011KT P6SM SCT080 SCT250
     FM031100 12007KT 5SM BR OVC010=



000
FTUS44 KMAF 021636 AAE
TAFMAF
TAF AMD
KMAF 021636Z 0217/0312 15011KT P6SM SCT040 SCT250
     FM031100 12007KT 5SM BR OVC010=



000
FTUS44 KMAF 021556 AAD
TAFMAF
TAF AMD
KMAF 021556Z 0216/0312 15011KT P6SM SCT040 SCT250
     FM031000 12007KT 5SM BR OVC004=



000
FTUS44 KMAF 021503 AAD
TAFMAF
TAF AMD
KMAF 021503Z 0215/0312 16011KT P6SM SCT015 BKN040
      TEMPO 0215/0217 BKN015
     FM022100 15011KT P6SM SCT040 SCT250
     FM031000 12007KT 5SM BR OVC004=



000
FTUS44 KMAF 021448 AAC
TAFMAF
TAF AMD
KMAF 021448Z 0215/0312 16011KT P6SM SCT015 BKN040
      TEMPO 0215/0217 BKN020
     FM022100 15011KT P6SM SCT040 SCT250
     FM031000 12007KT 5SM BR OVC004=



000
FTUS44 KMAF 021414 AAB
TAFMAF
TAF AMD
KMAF 021414Z 0214/0312 16011KT P6SM OVC015
     FM021800 17011KT P6SM BKN030
     FM022100 15011KT P6SM SCT040 SCT250
     FM031000 12007KT 5SM BR OVC004=



000
FTUS44 KMAF 021120
TAFMAF
TAF
KMAF 021120Z 0212/0312 18011KT P6SM OVC019
     FM021800 17012KT P6SM BKN030
     FM022100 15013KT P6SM SCT040 SCT250
     FM030200 14008KT P6SM SCT200
     FM031000 12007KT 5SM BR OVC004=



000
FTUS44 KMAF 021120
TAFMAF
TAF
KMAF 021120Z 0212/0312 18011KT P6SM OVC019
     FM021800 17012KT P6SM BKN030
     FM022100 15013KT P6SM SCT040 SCT250
     FM030200 14008KT P6SM SCT200
     FM031000 12007KT 5SM BR OVC004=



000
FTUS44 KMAF 020805 AAA
TAFMAF
TAF AMD
KMAF 020805Z 0208/0306 17011KT P6SM OVC020
     FM021300 18012KT P6SM OVC009
     FM021800 17012KT P6SM BKN030
     FM022100 15013KT P6SM FEW250
     FM030200 14008KT P6SM BKN120=



000
FTUS44 KMAF 020526
TAFMAF
TAF
KMAF 020526Z 0206/0306 18009KT P6SM SKC
     FM020800 17011KT P6SM OVC019
     FM021300 18012KT P6SM OVC009
     FM021800 17012KT P6SM BKN030
     FM022100 15013KT P6SM FEW250
     FM030200 14008KT P6SM BKN120=



000
FTUS44 KMAF 020526
TAFMAF
TAF
KMAF 020526Z 0206/0306 18009KT P6SM SKC
     FM020800 17011KT P6SM OVC019
     FM021300 18012KT P6SM OVC009
     FM021800 17012KT P6SM BKN030
     FM022100 15013KT P6SM FEW250
     FM030200 14008KT P6SM BKN120=



    US Dept of Commerce
    National Oceanic and Atmospheric Administration
    National Weather Service
    1325 East West Highway
    Silver Spring, MD 20910
    Page Author: NWS Internet Services Team
Disclaimer
Information Quality
Credits
Glossary
Privacy Policy
Freedom of Information Act (FOIA)
About Us
Career Opportunities